createdAt,value
2023-01-08T00:00:04.576Z,86.34
2023-01-08T00:01:04.871Z,86.65
2023-01-08T00:02:05.107Z,86.99
2023-01-08T00:03:04.400Z,86.79
2023-01-08T00:04:07.387Z,86.90
2023-01-08T00:05:04.873Z,86.90
2023-01-08T00:06:05.143Z,86.99
2023-01-08T00:07:04.337Z,86.99
2023-01-08T00:08:04.607Z,87.10
2023-01-08T00:09:04.849Z,87.30
2023-01-08T00:10:07.353Z,87.20
2023-01-08T00:11:04.312Z,87.10
2023-01-08T00:12:04.563Z,87.41
2023-01-08T00:13:04.814Z,87.30
2023-01-08T00:14:05.046Z,87.51
2023-01-08T00:15:04.317Z,87.41
2023-01-08T00:16:07.026Z,87.30
2023-01-08T00:17:04.786Z,87.16
2023-01-08T00:18:06.844Z,87.30
2023-01-08T00:19:04.337Z,87.61
2023-01-08T00:20:04.507Z,87.61
2023-01-08T00:21:04.786Z,87.71
2023-01-08T00:22:07.674Z,87.71
2023-01-08T00:23:04.232Z,87.71
2023-01-08T00:24:04.570Z,87.71
2023-01-08T00:25:04.754Z,87.82
2023-01-08T00:26:03.999Z,87.92
2023-01-08T00:27:05.215Z,88.02
2023-01-08T00:28:06.499Z,88.02
2023-01-08T00:29:04.782Z,88.12
2023-01-08T00:30:03.945Z,88.23
2023-01-08T00:31:05.190Z,87.92
2023-01-08T00:32:04.424Z,88.12
2023-01-08T00:33:04.718Z,88.33
2023-01-08T00:34:03.970Z,88.02
2023-01-08T00:35:04.162Z,88.23
2023-01-08T00:36:04.412Z,88.23
2023-01-08T00:37:04.658Z,88.43
2023-01-08T00:38:03.884Z,88.33
2023-01-08T00:39:04.152Z,88.43
2023-01-08T00:40:06.942Z,88.53
2023-01-08T00:41:04.755Z,88.64
2023-01-08T00:42:03.873Z,88.64
2023-01-08T00:43:04.157Z,88.53
2023-01-08T00:44:07.282Z,88.64
2023-01-08T00:45:04.623Z,88.74
2023-01-08T00:46:03.984Z,88.84
2023-01-08T00:47:04.120Z,88.84
2023-01-08T00:48:04.331Z,88.84
2023-01-08T00:49:04.574Z,88.84
2023-01-08T00:50:03.854Z,88.84
2023-01-08T00:51:04.085Z,88.94
2023-01-08T00:52:06.834Z,88.84
2023-01-08T00:53:04.629Z,88.74
2023-01-08T00:54:03.807Z,88.94
2023-01-08T00:55:04.037Z,88.74
2023-01-08T00:56:04.304Z,88.64
2023-01-08T00:57:04.568Z,88.74
2023-01-08T00:58:04.771Z,88.84
2023-01-08T00:59:04.068Z,89.04
2023-01-08T01:00:04.259Z,88.94
2023-01-08T01:01:07.474Z,88.94
2023-01-08T01:02:03.895Z,89.04
2023-01-08T01:03:04.037Z,88.74
2023-01-08T01:04:04.368Z,88.94
2023-01-08T01:05:04.575Z,88.84
2023-01-08T01:06:03.811Z,88.84
2023-01-08T01:07:04.139Z,88.84
2023-01-08T01:08:04.293Z,88.74
2023-01-08T01:09:03.488Z,88.84
2023-01-08T01:10:03.720Z,89.04
2023-01-08T01:11:03.995Z,89.15
2023-01-08T01:12:04.222Z,89.15
2023-01-08T01:13:03.458Z,89.36
2023-01-08T01:14:03.656Z,89.25
2023-01-08T01:15:04.857Z,89.36
2023-01-08T01:16:04.138Z,89.56
2023-01-08T01:17:03.478Z,89.36
2023-01-08T01:18:03.631Z,89.15
2023-01-08T01:19:03.857Z,89.36
2023-01-08T01:20:04.127Z,89.15
2023-01-08T01:21:03.262Z,89.15
2023-01-08T01:22:03.523Z,89.15
2023-01-08T01:23:03.769Z,89.04
2023-01-08T01:24:04.042Z,88.94
2023-01-08T01:25:04.160Z,88.94
2023-01-08T01:26:04.419Z,89.15
2023-01-08T01:27:04.691Z,89.15
2023-01-08T01:28:04.927Z,89.25
2023-01-08T01:29:04.321Z,89.45
2023-01-08T01:30:03.418Z,89.25
2023-01-08T01:31:03.768Z,89.25
2023-01-08T01:32:03.903Z,89.15
2023-01-08T01:33:03.132Z,89.04
2023-01-08T01:34:04.306Z,88.94
2023-01-08T01:35:03.679Z,89.15
2023-01-08T01:36:04.874Z,89.04
2023-01-08T01:37:04.039Z,88.84
2023-01-08T01:38:04.288Z,88.70
2023-01-08T01:39:03.587Z,88.59
2023-01-08T01:40:03.883Z,88.59
2023-01-08T01:41:03.093Z,88.64
2023-01-08T01:42:03.094Z,88.59
2023-01-08T01:43:03.346Z,88.70
2023-01-08T01:44:03.585Z,88.59
2023-01-08T01:45:03.847Z,88.70
2023-01-08T01:46:03.154Z,88.59
2023-01-08T01:47:04.247Z,88.49
2023-01-08T01:48:03.536Z,88.59
2023-01-08T01:49:03.785Z,88.80
2023-01-08T01:50:03.032Z,88.80
2023-01-08T01:51:03.278Z,88.80
2023-01-08T01:52:03.531Z,88.80
2023-01-08T01:53:03.802Z,88.80
2023-01-08T01:54:03.954Z,89.21
2023-01-08T01:55:04.209Z,89.72
2023-01-08T01:56:03.909Z,89.72
2023-01-08T01:57:04.749Z,90.03
2023-01-08T01:58:03.937Z,89.76
2023-01-08T01:59:04.224Z,89.87
2023-01-08T02:00:03.512Z,89.76
2023-01-08T02:01:02.768Z,89.51
2023-01-08T02:02:03.401Z,89.56
2023-01-08T02:03:03.259Z,90.07
2023-01-08T02:04:03.541Z,90.07
2023-01-08T02:05:02.756Z,90.37
2023-01-08T02:06:02.983Z,90.28
2023-01-08T02:07:03.268Z,90.48
2023-01-08T02:08:03.531Z,90.69
2023-01-08T02:09:02.729Z,90.89
2023-01-08T02:10:02.996Z,90.58
2023-01-08T02:11:03.216Z,90.37
2023-01-08T02:12:03.553Z,90.69
2023-01-08T02:13:02.717Z,90.69
2023-01-08T02:14:02.977Z,90.58
2023-01-08T02:15:03.225Z,90.89
2023-01-08T02:16:04.443Z,90.99
2023-01-08T02:17:03.695Z,91.20
2023-01-08T02:18:03.023Z,91.20
2023-01-08T02:19:03.177Z,91.09
2023-01-08T02:20:03.469Z,90.99
2023-01-08T02:21:02.685Z,91.09
2023-01-08T02:22:02.957Z,90.99
2023-01-08T02:23:03.172Z,91.20
2023-01-08T02:24:03.443Z,90.79
2023-01-08T02:25:02.645Z,90.79
2023-01-08T02:26:02.861Z,90.99
2023-01-08T02:27:03.143Z,90.89
2023-01-08T02:28:03.521Z,90.89
2023-01-08T02:29:02.594Z,91.09
2023-01-08T02:30:02.834Z,91.40
2023-01-08T02:31:03.098Z,91.50
2023-01-08T02:32:04.299Z,91.50
2023-01-08T02:33:03.456Z,91.40
2023-01-08T02:34:02.833Z,91.61
2023-01-08T02:35:03.949Z,91.50
2023-01-08T02:36:03.226Z,91.20
2023-01-08T02:37:02.462Z,91.09
2023-01-08T02:38:03.640Z,91.09
2023-01-08T02:39:02.955Z,90.99
2023-01-08T02:40:03.147Z,91.09
2023-01-08T02:41:02.340Z,90.99
2023-01-08T02:42:02.615Z,91.09
2023-01-08T02:43:02.841Z,91.05
2023-01-08T02:44:03.068Z,91.30
2023-01-08T02:45:02.375Z,91.30
2023-01-08T02:46:02.559Z,90.99
2023-01-08T02:47:02.758Z,90.95
2023-01-08T02:48:02.999Z,91.20
2023-01-08T02:49:02.219Z,91.30
2023-01-08T02:50:02.501Z,91.30
2023-01-08T02:51:02.685Z,91.50
2023-01-08T02:52:03.911Z,91.40
2023-01-08T02:53:02.133Z,91.50
2023-01-08T02:54:02.391Z,91.30
2023-01-08T02:55:02.649Z,91.50
2023-01-08T02:56:02.883Z,91.40
2023-01-08T02:57:03.034Z,91.20
2023-01-08T02:58:02.373Z,91.30
2023-01-08T02:59:02.582Z,91.30
2023-01-08T03:00:02.850Z,91.40
2023-01-08T03:01:02.241Z,91.09
2023-01-08T03:02:03.372Z,91.20
2023-01-08T03:03:02.571Z,90.99
2023-01-08T03:04:02.880Z,90.99
2023-01-08T03:05:02.062Z,91.09
2023-01-08T03:06:02.339Z,90.89
2023-01-08T03:07:02.579Z,90.89
2023-01-08T03:08:02.826Z,91.20
2023-01-08T03:09:03.003Z,91.20
2023-01-08T03:10:02.298Z,91.09
2023-01-08T03:11:03.527Z,91.20
2023-01-08T03:12:01.874Z,91.30
2023-01-08T03:13:02.096Z,91.30
2023-01-08T03:14:02.319Z,91.40
2023-01-08T03:15:03.531Z,91.61
2023-01-08T03:16:02.721Z,90.99
2023-01-08T03:17:02.173Z,91.09
2023-01-08T03:18:02.345Z,91.20
2023-01-08T03:19:03.495Z,91.09
2023-01-08T03:20:02.718Z,91.61
2023-01-08T03:21:02.931Z,91.61
2023-01-08T03:22:03.199Z,91.61
2023-01-08T03:23:02.608Z,91.61
2023-01-08T03:24:01.672Z,91.50
2023-01-08T03:25:02.878Z,91.61
2023-01-08T03:26:03.141Z,91.50
2023-01-08T03:27:02.436Z,91.82
2023-01-08T03:28:02.573Z,92.02
2023-01-08T03:29:02.668Z,92.22
2023-01-08T03:30:02.156Z,92.53
2023-01-08T03:31:02.465Z,92.32
2023-01-08T03:32:01.626Z,92.74
2023-01-08T03:33:01.860Z,92.22
2023-01-08T03:34:02.117Z,92.43
2023-01-08T03:35:02.417Z,92.53
2023-01-08T03:36:01.555Z,92.83
2023-01-08T03:37:02.751Z,92.83
2023-01-08T03:38:02.028Z,92.94
2023-01-08T03:39:03.205Z,93.04
2023-01-08T03:40:02.426Z,93.04
2023-01-08T03:41:02.687Z,93.08
2023-01-08T03:42:03.441Z,93.08
2023-01-08T03:43:03.150Z,93.29
2023-01-08T03:44:02.397Z,93.39
2023-01-08T03:45:02.618Z,93.29
2023-01-08T03:46:02.987Z,93.39
2023-01-08T03:47:02.156Z,93.19
2023-01-08T03:48:01.331Z,92.88
2023-01-08T03:49:01.598Z,92.98
2023-01-08T03:50:02.791Z,92.78
2023-01-08T03:51:03.057Z,92.36
2023-01-08T03:52:02.258Z,92.06
2023-01-08T03:53:01.528Z,91.91
2023-01-08T03:54:01.781Z,91.82
2023-01-08T03:55:02.991Z,92.02
2023-01-08T03:56:02.205Z,92.12
2023-01-08T03:57:02.391Z,91.82
2023-01-08T03:58:02.526Z,91.44
2023-01-08T03:59:01.846Z,91.61
2023-01-08T04:00:03.057Z,91.82
2023-01-08T04:01:02.201Z,91.82
2023-01-08T04:02:01.624Z,91.61
2023-01-08T04:03:03.751Z,91.82
2023-01-08T04:04:02.015Z,91.86
2023-01-08T04:05:01.135Z,91.50
2023-01-08T04:06:02.349Z,91.71
2023-01-08T04:07:01.661Z,91.86
2023-01-08T04:08:01.939Z,92.06
2023-01-08T04:09:01.096Z,91.96
2023-01-08T04:10:02.480Z,91.86
2023-01-08T04:11:02.555Z,92.06
2023-01-08T04:12:02.827Z,91.75
2023-01-08T04:13:02.006Z,91.96
2023-01-08T04:14:01.347Z,91.86
2023-01-08T04:15:02.513Z,91.75
2023-01-08T04:16:02.806Z,91.75
2023-01-08T04:17:01.033Z,91.75
2023-01-08T04:18:02.208Z,91.75
2023-01-08T04:19:02.565Z,91.86
2023-01-08T04:20:02.695Z,91.65
2023-01-08T04:21:01.925Z,91.75
2023-01-08T04:22:02.149Z,91.75
2023-01-08T04:23:01.450Z,91.75
2023-01-08T04:24:01.804Z,91.86
2023-01-08T04:25:00.934Z,91.86
2023-01-08T04:26:01.155Z,91.24
2023-01-08T04:27:01.386Z,91.44
2023-01-08T04:28:02.597Z,91.55
2023-01-08T04:29:00.955Z,91.65
2023-01-08T04:30:01.190Z,92.16
2023-01-08T04:31:01.424Z,92.27
2023-01-08T04:32:02.490Z,92.27
2023-01-08T04:33:01.670Z,91.86
2023-01-08T04:34:01.906Z,91.96
2023-01-08T04:35:01.244Z,91.75
2023-01-08T04:36:01.486Z,91.65
2023-01-08T04:37:01.626Z,91.86
2023-01-08T04:38:01.867Z,91.86
2023-01-08T04:39:01.187Z,91.96
2023-01-08T04:40:01.554Z,92.16
2023-01-08T04:41:00.637Z,92.27
2023-01-08T04:42:01.802Z,91.86
2023-01-08T04:43:01.095Z,91.35
2023-01-08T04:44:02.337Z,91.65
2023-01-08T04:45:00.575Z,91.96
2023-01-08T04:46:00.935Z,92.36
2023-01-08T04:47:02.027Z,92.47
2023-01-08T04:48:01.295Z,92.36
2023-01-08T04:49:00.520Z,92.16
2023-01-08T04:50:00.743Z,92.47
2023-01-08T04:51:01.017Z,92.68
2023-01-08T04:52:02.083Z,92.88
2023-01-08T04:53:02.383Z,92.98
2023-01-08T04:54:00.626Z,93.19
2023-01-08T04:55:00.862Z,93.08
2023-01-08T04:56:01.142Z,93.39
2023-01-08T04:57:01.415Z,93.49
2023-01-08T04:58:00.507Z,93.29
2023-01-08T04:59:00.864Z,92.68
2023-01-08T05:00:00.968Z,92.57
2023-01-08T05:01:01.224Z,92.68
2023-01-08T05:02:00.578Z,92.88
2023-01-08T05:03:00.749Z,92.88
2023-01-08T05:04:01.810Z,93.08
2023-01-08T05:05:01.118Z,92.98
2023-01-08T05:06:00.291Z,92.82
2023-01-08T05:07:01.511Z,92.61
2023-01-08T05:08:00.777Z,92.61
2023-01-08T05:09:01.010Z,93.02
2023-01-08T05:10:01.211Z,93.02
2023-01-08T05:11:00.391Z,93.13
2023-01-08T05:12:00.640Z,93.13
2023-01-08T05:13:00.900Z,93.13
2023-01-08T05:14:01.211Z,93.02
2023-01-08T05:15:00.360Z,92.61
2023-01-08T05:16:00.734Z,92.61
2023-01-08T05:17:00.875Z,92.41
2023-01-08T05:18:01.087Z,92.41
2023-01-08T05:19:00.278Z,92.41
2023-01-08T05:20:00.595Z,92.41
2023-01-08T05:21:00.801Z,92.31
2023-01-08T05:22:01.000Z,92.93
2023-01-08T05:23:01.223Z,92.82
2023-01-08T05:24:00.405Z,92.51
2023-01-08T05:25:00.641Z,92.51
2023-01-08T05:26:00.880Z,92.61
2023-01-08T05:27:01.122Z,93.02
2023-01-08T05:28:00.319Z,93.13
2023-01-08T05:29:00.571Z,92.93
2023-01-08T05:30:00.833Z,92.82
2023-01-08T05:31:01.149Z,92.61
2023-01-08T05:32:00.268Z,92.31
2023-01-08T05:33:00.495Z,92.21
2023-01-08T05:34:00.770Z,92.21
2023-01-08T05:34:59.948Z,92.51
2023-01-08T05:36:00.246Z,92.41
2023-01-08T05:37:00.436Z,92.31
2023-01-08T05:38:00.655Z,91.90
2023-01-08T05:38:59.844Z,92.00
2023-01-08T05:40:00.188Z,91.90
2023-01-08T05:41:00.316Z,91.80
2023-01-08T05:42:00.960Z,91.80
2023-01-08T05:43:00.809Z,91.90
2023-01-08T05:44:00.025Z,91.90
2023-01-08T05:45:00.252Z,91.80
2023-01-08T05:46:00.560Z,91.90
2023-01-08T05:47:00.768Z,91.90
2023-01-08T05:47:59.911Z,91.90
2023-01-08T05:49:00.141Z,91.90
2023-01-08T05:50:00.427Z,91.90
2023-01-08T05:51:00.609Z,91.90
2023-01-08T05:51:59.826Z,92.00
2023-01-08T05:53:00.114Z,92.00
2023-01-08T05:54:00.296Z,92.00
2023-01-08T05:55:01.519Z,92.21
2023-01-08T05:55:59.760Z,92.31
2023-01-08T05:57:00.040Z,92.10
2023-01-08T05:58:00.339Z,92.00
2023-01-08T05:59:01.448Z,92.10
2023-01-08T05:59:59.686Z,91.80
2023-01-08T06:00:59.959Z,92.00
2023-01-08T06:02:00.241Z,92.00
2023-01-08T06:03:00.586Z,91.69
2023-01-08T06:03:59.691Z,91.69
2023-01-08T06:04:59.896Z,91.80
2023-01-08T06:06:00.134Z,91.90
2023-01-08T06:07:00.537Z,91.90
2023-01-08T06:07:59.536Z,92.00
2023-01-08T06:09:01.794Z,91.80
2023-01-08T06:10:00.976Z,91.69
2023-01-08T06:11:00.285Z,91.80
2023-01-08T06:11:59.479Z,91.69
2023-01-08T06:12:59.766Z,91.28
2023-01-08T06:13:59.970Z,91.18
2023-01-08T06:15:00.220Z,91.08
2023-01-08T06:15:59.486Z,91.28
2023-01-08T06:16:59.625Z,91.38
2023-01-08T06:17:59.885Z,91.49
2023-01-08T06:19:00.133Z,91.08
2023-01-08T06:20:00.269Z,91.28
2023-01-08T06:20:59.637Z,90.97
2023-01-08T06:21:59.810Z,90.97
2023-01-08T06:23:00.035Z,90.56
2023-01-08T06:23:59.397Z,90.56
2023-01-08T06:24:59.337Z,90.67
2023-01-08T06:25:59.653Z,90.46
2023-01-08T06:26:59.885Z,90.67
2023-01-08T06:28:00.108Z,90.77
2023-01-08T06:28:59.316Z,90.87
2023-01-08T06:29:59.573Z,90.87
2023-01-08T06:30:59.837Z,90.87
2023-01-08T06:32:00.077Z,90.46
2023-01-08T06:32:59.284Z,90.46
2023-01-08T06:33:59.499Z,90.26
2023-01-08T06:35:00.514Z,90.26
2023-01-08T06:36:00.021Z,90.26
2023-01-08T06:36:59.187Z,90.26
2023-01-08T06:37:59.462Z,90.26
2023-01-08T06:38:59.694Z,90.36
2023-01-08T06:39:59.950Z,90.16
2023-01-08T06:40:59.198Z,90.16
2023-01-08T06:41:59.375Z,89.75
2023-01-08T06:43:00.591Z,89.75
2023-01-08T06:43:59.856Z,89.43
2023-01-08T06:44:59.019Z,89.54
2023-01-08T06:45:59.342Z,89.33
2023-01-08T06:46:59.535Z,89.54
2023-01-08T06:47:59.758Z,89.54
2023-01-08T06:48:58.987Z,89.64
2023-01-08T06:50:00.148Z,89.64
2023-01-08T06:50:59.443Z,89.95
2023-01-08T06:51:59.626Z,90.46
2023-01-08T06:52:59.882Z,90.87
2023-01-08T06:53:59.075Z,90.87
2023-01-08T06:54:59.326Z,91.02
2023-01-08T06:55:59.603Z,91.28
2023-01-08T06:56:59.828Z,91.33
2023-01-08T06:57:59.999Z,91.33
2023-01-08T06:59:00.257Z,91.33
2023-01-08T06:59:59.541Z,91.63
2023-01-08T07:01:00.745Z,92.35
2023-01-08T07:01:59.238Z,92.66
2023-01-08T07:02:59.413Z,93.27
2023-01-08T07:03:59.502Z,93.38
2023-01-08T07:04:59.708Z,94.04
2023-01-08T07:05:58.955Z,94.45
2023-01-08T07:06:59.226Z,94.96
2023-01-08T07:07:59.469Z,95.37
2023-01-08T07:08:58.673Z,95.68
2023-01-08T07:09:58.901Z,95.78
2023-01-08T07:11:00.102Z,95.89
2023-01-08T07:11:59.438Z,96.09
2023-01-08T07:12:59.576Z,95.98
2023-01-08T07:13:58.866Z,96.30
2023-01-08T07:15:00.072Z,96.85
2023-01-08T07:15:59.427Z,97.06
2023-01-08T07:16:58.561Z,97.27
2023-01-08T07:17:58.860Z,97.37
2023-01-08T07:18:59.991Z,97.27
2023-01-08T07:20:00.228Z,97.37
2023-01-08T07:20:59.452Z,97.57
2023-01-08T07:21:58.747Z,97.57
2023-01-08T07:22:59.013Z,97.88
2023-01-08T07:23:59.225Z,97.88
2023-01-08T07:24:58.431Z,98.08
2023-01-08T07:25:58.731Z,98.29
2023-01-08T07:26:58.931Z,98.39
2023-01-08T07:27:59.191Z,98.50
2023-01-08T07:28:58.420Z,98.50
2023-01-08T07:29:58.644Z,98.70
2023-01-08T07:30:58.937Z,98.91
2023-01-08T07:31:59.162Z,99.01
2023-01-08T07:32:58.356Z,99.21
2023-01-08T07:33:58.589Z,99.21
2023-01-08T07:34:58.861Z,99.11
2023-01-08T07:35:59.175Z,98.91
2023-01-08T07:36:58.290Z,98.70
2023-01-08T07:37:58.874Z,98.60
2023-01-08T07:38:58.825Z,98.39
2023-01-08T07:39:59.500Z,98.29
2023-01-08T07:40:59.256Z,98.19
2023-01-08T07:41:58.561Z,97.99
2023-01-08T07:42:58.778Z,97.88
2023-01-08T07:43:59.037Z,97.88
2023-01-08T07:44:58.301Z,97.88
2023-01-08T07:45:58.597Z,97.99
2023-01-08T07:46:58.812Z,98.19
2023-01-08T07:47:59.113Z,98.39
2023-01-08T07:48:58.236Z,98.39
2023-01-08T07:49:58.494Z,98.50
2023-01-08T07:50:58.844Z,98.50
2023-01-08T07:51:58.980Z,98.60
2023-01-08T07:52:58.336Z,98.60
2023-01-08T07:53:58.568Z,98.60
2023-01-08T07:54:58.653Z,98.50
2023-01-08T07:55:58.907Z,98.50
2023-01-08T07:56:58.181Z,98.50
2023-01-08T07:57:58.361Z,98.39
2023-01-08T07:58:58.611Z,98.39
2023-01-08T07:59:58.870Z,98.29
2023-01-08T08:00:59.340Z,98.39
2023-01-08T08:01:58.468Z,98.39
2023-01-08T08:02:58.616Z,98.39
2023-01-08T08:03:58.798Z,98.50
2023-01-08T08:04:58.911Z,98.39
2023-01-08T08:05:58.210Z,98.39
2023-01-08T08:06:58.555Z,98.08
2023-01-08T08:07:59.638Z,97.78
2023-01-08T08:08:57.906Z,97.27
2023-01-08T08:09:58.126Z,96.95
2023-01-08T08:10:59.303Z,96.44
2023-01-08T08:11:58.632Z,96.23
2023-01-08T08:12:57.811Z,96.14
2023-01-08T08:13:58.043Z,95.93
2023-01-08T08:14:58.290Z,95.72
2023-01-08T08:15:58.591Z,95.62
2023-01-08T08:16:58.783Z,95.72
2023-01-08T08:17:58.062Z,95.93
2023-01-08T08:18:59.180Z,96.03
2023-01-08T08:19:59.469Z,96.23
2023-01-08T08:20:58.654Z,96.34
2023-01-08T08:21:58.891Z,96.44
2023-01-08T08:22:58.277Z,96.44
2023-01-08T08:23:58.436Z,96.23
2023-01-08T08:24:57.723Z,96.14
2023-01-08T08:25:57.964Z,96.14
2023-01-08T08:26:58.250Z,96.14
2023-01-08T08:27:58.484Z,95.97
2023-01-08T08:28:57.690Z,95.62
2023-01-08T08:29:58.926Z,95.77
2023-01-08T08:30:58.288Z,95.87
2023-01-08T08:31:58.464Z,96.08
2023-01-08T08:32:57.685Z,96.39
2023-01-08T08:33:58.012Z,96.59
2023-01-08T08:34:58.204Z,96.69
2023-01-08T08:35:58.479Z,96.69
2023-01-08T08:36:58.719Z,96.80
2023-01-08T08:37:57.963Z,96.80
2023-01-08T08:38:58.227Z,96.80
2023-01-08T08:39:57.445Z,96.48
2023-01-08T08:40:57.663Z,96.18
2023-01-08T08:41:57.960Z,96.18
2023-01-08T08:43:03.365Z,95.97
2023-01-08T08:43:57.377Z,95.87
2023-01-08T08:44:58.091Z,95.77
2023-01-08T08:45:57.832Z,95.56
2023-01-08T08:46:58.154Z,95.46
2023-01-08T08:47:57.327Z,95.10
2023-01-08T08:48:58.542Z,95.21
2023-01-08T08:49:57.808Z,95.21
2023-01-08T08:50:58.087Z,95.21
2023-01-08T08:51:57.291Z,95.21
2023-01-08T08:52:57.506Z,95.10
2023-01-08T08:53:57.752Z,95.21
2023-01-08T08:54:58.025Z,95.01
2023-01-08T08:55:58.156Z,94.95
2023-01-08T08:56:57.651Z,95.05
2023-01-08T08:57:58.633Z,94.95
2023-01-08T08:58:58.902Z,94.64
2023-01-08T09:00:01.029Z,94.33
2023-01-08T09:00:58.347Z,94.12
2023-01-08T09:01:57.827Z,94.12
2023-01-08T09:02:58.014Z,93.82
2023-01-08T09:03:57.091Z,93.71
2023-01-08T09:04:57.321Z,93.57
2023-01-08T09:05:59.740Z,93.61
2023-01-08T09:06:57.825Z,93.82
2023-01-08T09:07:58.261Z,94.02
2023-01-08T09:08:57.268Z,94.12
2023-01-08T09:09:57.526Z,94.18
2023-01-08T09:10:57.743Z,94.29
2023-01-08T09:11:57.975Z,94.18
2023-01-08T09:12:57.214Z,94.18
2023-01-08T09:13:57.517Z,93.98
2023-01-08T09:14:57.684Z,93.46
2023-01-08T09:15:57.952Z,92.85
2023-01-08T09:16:57.158Z,92.74
2023-01-08T09:17:58.476Z,92.44
2023-01-08T09:18:57.595Z,92.13
2023-01-08T09:19:57.880Z,92.44
2023-01-08T09:20:57.986Z,92.74
2023-01-08T09:21:58.258Z,92.74
2023-01-08T09:22:57.542Z,92.74
2023-01-08T09:23:57.751Z,92.95
2023-01-08T09:24:57.031Z,92.74
2023-01-08T09:25:57.215Z,92.95
2023-01-08T09:26:57.445Z,92.95
2023-01-08T09:27:57.717Z,93.16
2023-01-08T09:28:56.895Z,93.36
2023-01-08T09:29:57.143Z,93.46
2023-01-08T09:30:57.389Z,93.36
2023-01-08T09:31:57.673Z,93.46
2023-01-08T09:32:56.818Z,93.36
2023-01-08T09:33:57.099Z,93.36
2023-01-08T09:34:57.309Z,93.26
2023-01-08T09:35:57.510Z,93.36
2023-01-08T09:36:56.715Z,93.36
2023-01-08T09:37:56.934Z,93.26
2023-01-08T09:38:57.158Z,93.16
2023-01-08T09:40:02.587Z,93.26
2023-01-08T09:40:56.567Z,93.26
2023-01-08T09:41:57.022Z,93.46
2023-01-08T09:42:57.001Z,93.46
2023-01-08T09:43:57.217Z,93.57
2023-01-08T09:44:57.484Z,93.77
2023-01-08T09:45:57.043Z,93.87
2023-01-08T09:46:56.969Z,94.08
2023-01-08T09:47:57.127Z,94.49
2023-01-08T09:48:57.321Z,94.80
2023-01-08T09:49:56.491Z,95.01
2023-01-08T09:50:56.690Z,95.36
2023-01-08T09:51:56.966Z,95.67
2023-01-08T09:52:57.120Z,95.97
2023-01-08T09:53:57.337Z,96.28
2023-01-08T09:54:56.508Z,96.39
2023-01-08T09:56:09.037Z,96.59
2023-01-08T09:56:57.943Z,96.69
2023-01-08T09:57:57.115Z,96.90
2023-01-08T09:58:57.346Z,97.00
2023-01-08T09:59:56.539Z,97.20
2023-01-08T10:00:56.818Z,97.20
2023-01-08T10:01:58.098Z,97.41
2023-01-08T10:02:57.434Z,97.52
2023-01-08T10:03:56.406Z,97.62
2023-01-08T10:04:56.621Z,97.66
2023-01-08T10:05:56.881Z,97.66
2023-01-08T10:06:57.564Z,97.66
2023-01-08T10:07:56.312Z,97.56
2023-01-08T10:08:56.616Z,97.52
2023-01-08T10:09:56.765Z,97.62
2023-01-08T10:10:57.017Z,97.62
2023-01-08T10:11:56.375Z,97.82
2023-01-08T10:12:56.446Z,97.82
2023-01-08T10:13:56.685Z,97.92
2023-01-08T10:14:56.931Z,97.72
2023-01-08T10:15:57.238Z,97.52
2023-01-08T10:16:56.323Z,97.41
2023-01-08T10:17:57.512Z,97.31
2023-01-08T10:18:57.739Z,97.31
2023-01-08T10:19:57.121Z,97.16
2023-01-08T10:20:56.221Z,97.16
2023-01-08T10:21:56.435Z,97.06
2023-01-08T10:22:57.694Z,96.95
2023-01-08T10:23:56.991Z,96.95
2023-01-08T10:24:56.160Z,96.95
2023-01-08T10:25:56.526Z,96.95
2023-01-08T10:26:56.680Z,97.06
2023-01-08T10:27:56.951Z,97.06
2023-01-08T10:28:56.175Z,97.16
2023-01-08T10:29:56.381Z,97.37
2023-01-08T10:30:56.642Z,97.27
2023-01-08T10:31:56.877Z,96.65
2023-01-08T10:32:56.090Z,96.50
2023-01-08T10:33:56.323Z,96.19
2023-01-08T10:34:56.535Z,95.17
2023-01-08T10:35:56.750Z,94.96
2023-01-08T10:36:56.251Z,93.83
2023-01-08T10:37:56.170Z,92.66
2023-01-08T10:38:56.443Z,92.55
2023-01-08T10:39:56.669Z,93.23
2023-01-08T10:40:55.862Z,92.82
2023-01-08T10:41:56.116Z,92.72
2023-01-08T10:42:56.689Z,93.44
2023-01-08T10:43:56.565Z,93.13
2023-01-08T10:44:55.745Z,92.93
2023-01-08T10:45:55.979Z,92.27
2023-01-08T10:46:56.162Z,92.47
2023-01-08T10:47:56.390Z,92.78
2023-01-08T10:48:56.817Z,92.88
2023-01-08T10:49:55.780Z,92.57
2023-01-08T10:50:56.053Z,91.75
2023-01-08T10:51:56.370Z,92.06
2023-01-08T10:52:55.581Z,91.86
2023-01-08T10:53:55.924Z,91.35
2023-01-08T10:54:56.320Z,91.55
2023-01-08T10:55:56.451Z,92.06
2023-01-08T10:56:55.887Z,91.49
2023-01-08T10:57:55.982Z,91.59
2023-01-08T10:58:56.260Z,91.86
2023-01-08T10:59:56.703Z,91.75
2023-01-08T11:00:55.912Z,91.49
2023-01-08T11:01:56.192Z,91.28
2023-01-08T11:02:56.285Z,91.65
2023-01-08T11:03:56.065Z,91.69
2023-01-08T11:04:55.809Z,91.03
2023-01-08T11:05:56.268Z,90.62
2023-01-08T11:06:56.383Z,91.35
2023-01-08T11:07:55.616Z,91.44
2023-01-08T11:08:55.886Z,91.65
2023-01-08T11:09:56.146Z,91.55
2023-01-08T11:10:55.376Z,91.03
2023-01-08T11:11:55.721Z,91.14
2023-01-08T11:12:55.893Z,90.11
2023-01-08T11:13:56.153Z,89.90
2023-01-08T11:14:55.363Z,90.11
2023-01-08T11:15:55.648Z,89.39
2023-01-08T11:16:56.210Z,89.39
2023-01-08T11:17:56.114Z,89.39
2023-01-08T11:18:55.316Z,89.25
2023-01-08T11:19:56.502Z,89.56
2023-01-08T11:20:56.743Z,89.15
2023-01-08T11:21:56.988Z,88.53
2023-01-08T11:22:55.309Z,88.12
2023-01-08T11:23:55.447Z,88.33
2023-01-08T11:24:55.666Z,87.10
2023-01-08T11:25:55.906Z,87.10
2023-01-08T11:26:55.449Z,86.99
2023-01-08T11:27:55.666Z,86.96
2023-01-08T11:28:55.762Z,86.44
2023-01-08T11:29:56.017Z,86.44
2023-01-08T11:30:55.208Z,85.93
2023-01-08T11:31:55.540Z,86.24
2023-01-08T11:32:55.706Z,86.85
2023-01-08T11:33:55.907Z,85.72
2023-01-08T11:34:55.120Z,85.52
2023-01-08T11:35:55.351Z,86.04
2023-01-08T11:36:55.168Z,85.93
2023-01-08T11:37:55.383Z,85.93
2023-01-08T11:38:55.664Z,86.04
2023-01-08T11:39:55.831Z,85.79
2023-01-08T11:40:55.983Z,86.26
2023-01-08T11:41:55.298Z,85.85
2023-01-08T11:42:55.514Z,86.32
2023-01-08T11:43:55.757Z,84.48
2023-01-08T11:44:54.940Z,85.10
2023-01-08T11:45:55.224Z,85.77
2023-01-08T11:46:55.430Z,82.60
2023-01-08T11:47:55.631Z,83.73
2023-01-08T11:48:55.861Z,82.09
2023-01-08T11:49:55.218Z,83.62
2023-01-08T11:50:55.302Z,84.24
2023-01-08T11:51:55.609Z,83.36
2023-01-08T11:52:55.777Z,83.87
2023-01-08T11:53:54.997Z,83.76
2023-01-08T11:54:55.246Z,81.93
2023-01-08T11:55:55.486Z,82.34
2023-01-08T11:56:56.591Z,83.25
2023-01-08T11:57:54.916Z,83.01
2023-01-08T11:58:55.165Z,83.62
2023-01-08T11:59:55.589Z,81.17
2023-01-08T12:00:55.684Z,81.38
2023-01-08T12:01:55.320Z,81.51
2023-01-08T12:02:55.082Z,82.95
2023-01-08T12:03:55.266Z,83.46
2023-01-08T12:04:55.462Z,83.46
2023-01-08T12:05:54.709Z,83.36
2023-01-08T12:06:54.911Z,83.66
2023-01-08T12:07:55.111Z,83.97
2023-01-08T12:08:55.347Z,83.97
2023-01-08T12:09:55.572Z,83.19
2023-01-08T12:10:54.817Z,83.29
2023-01-08T12:11:55.008Z,83.39
2023-01-08T12:12:56.189Z,83.81
2023-01-08T12:13:55.448Z,83.84
2023-01-08T12:14:54.667Z,83.64
2023-01-08T12:15:54.934Z,84.56
2023-01-08T12:16:55.177Z,84.56
2023-01-08T12:17:56.368Z,84.25
2023-01-08T12:18:54.851Z,85.52
2023-01-08T12:19:55.771Z,85.52
2023-01-08T12:20:56.007Z,85.52
2023-01-08T12:21:55.291Z,85.83
2023-01-08T12:22:54.532Z,85.31
2023-01-08T12:23:54.699Z,85.63
2023-01-08T12:24:54.922Z,86.55
2023-01-08T12:25:55.148Z,86.04
2023-01-08T12:26:55.446Z,86.24
2023-01-08T12:27:57.271Z,86.90
2023-01-08T12:28:55.842Z,87.67
2023-01-08T12:29:55.059Z,87.20
2023-01-08T12:30:55.320Z,86.99
2023-01-08T12:32:02.930Z,87.51
2023-01-08T12:32:55.812Z,87.88
2023-01-08T12:33:54.979Z,87.67
2023-01-08T12:34:55.230Z,87.53
2023-01-08T12:35:55.323Z,86.34
2023-01-08T12:36:54.357Z,87.37
2023-01-08T12:37:55.527Z,87.26
2023-01-08T12:38:54.874Z,87.16
2023-01-08T12:39:56.007Z,87.22
2023-01-08T12:40:55.211Z,86.51
2023-01-08T12:41:54.497Z,87.26
2023-01-08T12:43:01.030Z,87.06
2023-01-08T12:43:56.180Z,87.47
2023-01-08T12:44:55.151Z,87.26
2023-01-08T12:45:54.465Z,87.37
2023-01-08T12:46:54.683Z,87.06
2023-01-08T12:47:55.916Z,87.47
2023-01-08T12:48:54.157Z,86.85
2023-01-08T12:49:54.588Z,87.88
2023-01-08T12:50:54.632Z,86.75
2023-01-08T12:51:55.913Z,86.34